Time;durP1;ratioP1;P1;durP2;ratioP2;P2;SDS_P1;SDS_P2;PMS_P1;PMS_P2;Temp;Humidity;BMP_temperature;BMP_pressure;BME280_temperature;BME280_humidity;BME280_pressure;Samples;Min_cycle;Max_cycle;Signal;HPM_P1;HPM_P2
2023/03/14 00:00:49;;;;;;;0.45;0.45;;;10.10;99.90;;;;;;5090952;28;20118;-77
2023/03/14 00:03:15;;;;;;;0.75;0.75;;;10.10;99.90;;;;;;5098247;28;20054;-77
2023/03/14 00:05:41;;;;;;;0.10;0.10;;;10.00;99.90;;;;;;5092464;28;20188;-76
2023/03/14 00:08:06;;;;;;;1.65;1.40;;;10.10;99.90;;;;;;5072518;28;20558;-79
2023/03/14 00:10:32;;;;;;;0.20;0.20;;;10.10;99.90;;;;;;5100346;28;20823;-79
2023/03/14 00:12:57;;;;;;;0.10;0.10;;;10.10;99.90;;;;;;5084039;28;20608;-78
2023/03/14 00:15:23;;;;;;;3.90;1.40;;;10.10;99.90;;;;;;5096278;28;20023;-79
2023/03/14 00:17:49;;;;;;;1.65;1.55;;;10.10;99.90;;;;;;5097390;28;20024;-78
2023/03/14 00:20:15;;;;;;;0.10;0.10;;;10.20;99.90;;;;;;5102392;28;20060;-79
2023/03/14 00:22:41;;;;;;;0.32;0.32;;;10.30;99.90;;;;;;5094845;28;20072;-78
2023/03/14 00:25:09;;;;;;;1.75;1.05;;;10.30;99.90;;;;;;5096577;28;20153;-79
2023/03/14 00:27:34;;;;;;;1.20;1.15;;;10.20;99.90;;;;;;5091656;28;20024;-79
2023/03/14 00:30:00;;;;;;;1.02;1.02;;;10.20;99.90;;;;;;5081243;28;20070;-79
2023/03/14 00:32:26;;;;;;;0.28;0.28;;;10.20;99.90;;;;;;5092458;28;20028;-78
2023/03/14 00:34:52;;;;;;;0.90;0.90;;;10.20;99.90;;;;;;5079157;28;20035;-80
2023/03/14 00:37:17;;;;;;;2.33;1.70;;;10.30;99.90;;;;;;5095851;28;20028;-80
2023/03/14 00:39:43;;;;;;;0.20;0.20;;;10.30;99.90;;;;;;5101479;28;20238;-79
2023/03/14 00:42:09;;;;;;;0.10;0.10;;;10.10;99.90;;;;;;5088266;28;20028;-79
2023/03/14 00:44:35;;;;;;;0.40;0.40;;;10.30;99.90;;;;;;5093678;28;20043;-79
2023/03/14 00:47:00;;;;;;;0.15;0.15;;;10.20;99.90;;;;;;5097919;28;20053;-79
2023/03/14 00:49:26;;;;;;;0.63;0.63;;;10.20;99.90;;;;;;5091541;28;20078;-79
2023/03/14 00:51:52;;;;;;;0.15;0.15;;;10.10;99.90;;;;;;5097613;28;20556;-79
2023/03/14 00:54:21;;;;;;;0.73;0.73;;;10.20;99.90;;;;;;5084973;28;20028;-79
2023/03/14 00:56:47;;;;;;;0.10;0.10;;;10.30;99.90;;;;;;5099041;28;21355;-79
2023/03/14 00:59:13;;;;;;;1.60;1.23;;;10.40;99.90;;;;;;5096440;28;20035;-78
2023/03/14 01:01:39;;;;;;;3.88;1.23;;;10.30;99.90;;;;;;5077764;28;20450;-79
2023/03/14 01:04:05;;;;;;;0.43;0.43;;;10.30;99.90;;;;;;5092366;28;20071;-79
2023/03/14 01:06:31;;;;;;;14.63;2.53;;;10.20;99.90;;;;;;5095992;28;20795;-79
2023/03/14 01:08:58;;;;;;;0.52;0.52;;;10.30;99.90;;;;;;5092709;28;20126;-79
2023/03/14 01:11:29;;;;;;;2.15;1.60;;;10.10;99.90;;;;;;5079755;28;20081;-78
2023/03/14 01:13:55;;;;;;;1.02;0.90;;;10.10;99.90;;;;;;5086167;28;20479;-79
2023/03/14 01:16:23;;;;;;;0.40;0.40;;;10.10;99.90;;;;;;5099053;28;20122;-78
2023/03/14 01:18:49;;;;;;;1.02;1.02;;;10.00;99.90;;;;;;5093781;28;20126;-79
2023/03/14 01:21:20;;;;;;;2.50;0.65;;;9.90;99.90;;;;;;5079557;28;20798;-77
2023/03/14 01:23:46;;;;;;;1.20;1.10;;;9.80;99.90;;;;;;5099457;28;20031;-78
2023/03/14 01:26:15;;;;;;;1.35;0.65;;;9.80;99.90;;;;;;5092726;28;20047;-78
2023/03/14 01:28:41;;;;;;;0.10;0.10;;;9.80;99.90;;;;;;5098606;28;20107;-77
2023/03/14 01:31:09;;;;;;;0.10;0.10;;;9.60;99.90;;;;;;5105007;28;20030;-76
2023/03/14 01:33:35;;;;;;;0.13;0.13;;;9.60;99.90;;;;;;5084105;28;20026;-78
2023/03/14 01:36:02;;;;;;;0.20;0.20;;;9.50;99.90;;;;;;5082862;28;20078;-78
2023/03/14 01:38:29;;;;;;;5.43;0.90;;;9.50;99.90;;;;;;5094245;28;20028;-79
2023/03/14 01:40:55;;;;;;;0.10;0.10;;;9.40;99.90;;;;;;5099188;28;20024;-79
2023/03/14 01:43:21;;;;;;;0.10;0.10;;;9.50;99.90;;;;;;5082144;28;20028;-78
2023/03/14 01:46:26;;;;;;;0.80;0.80;;;9.40;99.90;;;;;;5097707;28;20613;-78
2023/03/14 01:49:16;;;;;;;0.25;0.25;;;9.40;99.90;;;;;;5067497;28;20116;-78
2023/03/14 01:51:41;;;;;;;0.50;0.50;;;9.30;99.90;;;;;;5085135;28;20035;-78
2023/03/14 01:54:14;;;;;;;0.10;0.10;;;9.10;99.90;;;;;;5093363;28;20081;-79
2023/03/14 01:56:43;;;;;;;0.20;0.20;;;9.00;99.90;;;;;;5095270;28;20042;-78
2023/03/14 01:59:10;;;;;;;6.40;1.05;;;8.90;99.90;;;;;;5093706;28;20673;-77
2023/03/14 02:01:38;;;;;;;1.38;0.80;;;8.80;99.90;;;;;;5093319;28;20031;-77
2023/03/14 02:04:07;;;;;;;0.65;0.63;;;9.00;99.90;;;;;;5094022;28;20071;-78
2023/03/14 02:06:44;;;;;;;0.10;0.10;;;8.90;99.90;;;;;;5093517;28;20039;-80
2023/03/14 02:09:10;;;;;;;2.35;1.40;;;8.80;99.90;;;;;;5093936;28;20050;-80
2023/03/14 02:11:36;;;;;;;0.30;0.30;;;9.00;99.90;;;;;;5078437;28;20140;-80
2023/03/14 02:14:02;;;;;;;22.63;1.50;;;9.10;99.90;;;;;;5099008;28;20061;-80
2023/03/14 02:16:27;;;;;;;0.10;0.10;;;8.90;99.90;;;;;;5096734;28;20071;-80
2023/03/14 02:18:53;;;;;;;0.40;0.40;;;8.90;99.90;;;;;;5092587;28;20047;-80
2023/03/14 02:21:56;;;;;;;0.10;0.10;;;8.90;99.90;;;;;;5086693;28;20126;-80
2023/03/14 02:24:22;;;;;;;0.20;0.20;;;8.90;99.90;;;;;;5065456;28;20035;-80
2023/03/14 02:27:09;;;;;;;0.10;0.10;;;8.90;99.90;;;;;;5102937;28;20039;-80
2023/03/14 02:29:40;;;;;;;2.20;0.50;;;9.10;99.90;;;;;;5096436;28;20027;-80
2023/03/14 02:32:07;;;;;;;0.28;0.28;;;8.80;99.90;;;;;;5101055;28;20482;-80
2023/03/14 02:34:33;;;;;;;0.10;0.10;;;8.90;99.90;;;;;;5091732;28;20024;-81
2023/03/14 02:37:00;;;;;;;0.10;0.10;;;8.90;99.90;;;;;;5097640;28;20024;-80
2023/03/14 02:39:40;;;;;;;0.20;0.20;;;8.90;99.90;;;;;;5102094;28;20027;-80
2023/03/14 02:42:05;;;;;;;0.10;0.10;;;8.80;99.90;;;;;;5087617;28;20050;-79
2023/03/14 02:44:31;;;;;;;2.15;1.98;;;8.90;99.90;;;;;;5090333;28;20112;-79
2023/03/14 02:46:57;;;;;;;0.10;0.10;;;8.80;99.90;;;;;;5093623;28;20046;-80
2023/03/14 02:49:24;;;;;;;0.10;0.10;;;8.80;99.90;;;;;;5085699;28;20042;-81
2023/03/14 02:51:50;;;;;;;4.38;1.20;;;8.80;99.90;;;;;;5091731;28;20023;-81
2023/03/14 02:54:16;;;;;;;12.57;0.73;;;9.00;99.90;;;;;;5092202;28;20028;-81
2023/03/14 02:56:41;;;;;;;0.30;0.30;;;8.90;99.90;;;;;;5091188;28;20506;-81
2023/03/14 02:59:07;;;;;;;0.32;0.32;;;8.90;99.90;;;;;;5093874;28;20854;-80
2023/03/14 03:01:34;;;;;;;0.10;0.10;;;8.80;99.90;;;;;;5076130;28;20024;-81
2023/03/14 03:04:00;;;;;;;0.10;0.10;;;8.60;99.90;;;;;;5099861;28;20051;-78
2023/03/14 03:06:25;;;;;;;0.10;0.10;;;8.70;99.90;;;;;;5099981;28;20546;-80
2023/03/14 03:08:52;;;;;;;2.05;1.65;;;8.70;99.90;;;;;;5099800;28;20081;-78
2023/03/14 03:11:17;;;;;;;0.10;0.10;;;8.80;99.90;;;;;;5101146;28;20034;-80
2023/03/14 03:13:43;;;;;;;0.10;0.10;;;8.70;99.90;;;;;;5102745;27;20258;-80
2023/03/14 03:16:09;;;;;;;0.10;0.10;;;8.70;99.90;;;;;;5077398;28;20448;-79
2023/03/14 03:18:34;;;;;;;6.53;2.10;;;8.70;99.90;;;;;;5099164;28;20034;-80
2023/03/14 03:21:04;;;;;;;3.42;3.00;;;8.80;99.90;;;;;;5098136;28;20514;-79
2023/03/14 03:23:30;;;;;;;0.10;0.10;;;8.70;99.90;;;;;;5089557;28;20024;-79
2023/03/14 03:25:56;;;;;;;0.10;0.10;;;8.70;99.90;;;;;;5093734;28;20048;-79
2023/03/14 03:28:22;;;;;;;0.20;0.20;;;8.80;99.90;;;;;;5096357;28;20049;-80
2023/03/14 03:30:47;;;;;;;0.20;0.20;;;8.80;99.90;;;;;;5094977;28;20036;-80
2023/03/14 03:33:13;;;;;;;1.55;0.75;;;8.70;99.90;;;;;;5085986;28;20028;-78
2023/03/14 03:35:47;;;;;;;0.10;0.10;;;8.70;99.90;;;;;;5096122;28;20031;-79
2023/03/14 03:38:13;;;;;;;0.35;0.35;;;8.70;99.90;;;;;;5090669;28;20024;-80
2023/03/14 03:40:39;;;;;;;0.10;0.10;;;8.70;99.90;;;;;;5099043;28;20038;-80
2023/03/14 03:43:04;;;;;;;0.30;0.30;;;8.80;99.90;;;;;;5089904;28;20036;-79
2023/03/14 03:45:30;;;;;;;0.10;0.10;;;8.80;99.90;;;;;;5101707;28;20070;-78
2023/03/14 03:47:56;;;;;;;0.35;0.35;;;8.90;99.90;;;;;;5100572;28;20042;-80
2023/03/14 03:50:22;;;;;;;0.10;0.10;;;8.90;99.90;;;;;;5089498;28;20117;-80
2023/03/14 03:52:48;;;;;;;0.10;0.10;;;8.90;99.90;;;;;;5098094;28;20044;-80
2023/03/14 03:55:13;;;;;;;0.10;0.10;;;8.90;99.90;;;;;;5095216;28;20071;-79
2023/03/14 03:57:39;;;;;;;0.10;0.10;;;8.80;99.90;;;;;;5095139;28;20023;-79
2023/03/14 04:00:06;;;;;;;0.10;0.10;;;8.90;99.90;;;;;;5092162;28;20035;-79
2023/03/14 04:02:32;;;;;;;0.10;0.10;;;8.90;99.90;;;;;;5095829;28;20032;-79
2023/03/14 04:04:58;;;;;;;0.10;0.10;;;8.90;99.90;;;;;;5100915;28;20028;-79
2023/03/14 04:07:24;;;;;;;0.47;0.47;;;8.80;99.90;;;;;;5099990;28;20039;-80
2023/03/14 04:09:50;;;;;;;0.10;0.10;;;8.80;99.90;;;;;;5068788;28;20039;-79
2023/03/14 04:12:15;;;;;;;0.10;0.10;;;8.70;99.90;;;;;;5100651;28;20028;-79
2023/03/14 04:14:41;;;;;;;0.10;0.10;;;8.70;99.90;;;;;;5099094;28;20035;-79
2023/03/14 04:17:07;;;;;;;0.10;0.10;;;8.70;99.90;;;;;;5096122;28;20035;-78
2023/03/14 04:19:33;;;;;;;1.20;1.17;;;8.60;99.90;;;;;;5091941;28;20038;-80
2023/03/14 04:21:59;;;;;;;0.20;0.20;;;8.60;99.90;;;;;;5093589;28;20032;-79
2023/03/14 04:24:24;;;;;;;0.20;0.20;;;8.60;99.90;;;;;;5091090;28;20032;-79
2023/03/14 04:26:50;;;;;;;0.32;0.30;;;8.50;99.90;;;;;;5098718;28;20024;-79
2023/03/14 04:29:16;;;;;;;7.20;1.27;;;8.50;99.90;;;;;;5094621;28;20097;-79
2023/03/14 04:31:42;;;;;;;2.30;0.95;;;8.40;99.90;;;;;;5101039;28;20199;-79
2023/03/14 04:34:07;;;;;;;0.52;0.52;;;8.40;99.90;;;;;;5101414;28;20128;-78
2023/03/14 04:36:33;;;;;;;0.10;0.10;;;8.40;99.90;;;;;;5094727;28;20105;-79
2023/03/14 04:38:59;;;;;;;0.10;0.10;;;8.40;99.90;;;;;;5076987;28;20035;-80
2023/03/14 04:41:24;;;;;;;0.57;0.57;;;8.50;99.90;;;;;;5096200;28;20642;-79
2023/03/14 04:43:50;;;;;;;1.27;1.00;;;8.50;99.90;;;;;;5101365;28;20031;-79
2023/03/14 04:46:16;;;;;;;13.52;1.55;;;8.60;99.90;;;;;;5087609;28;20134;-80
2023/03/14 04:48:41;;;;;;;0.70;0.40;;;8.60;99.90;;;;;;5092630;28;20036;-81
2023/03/14 04:51:07;;;;;;;0.10;0.10;;;8.70;99.90;;;;;;5089002;28;20032;-80
2023/03/14 04:53:34;;;;;;;0.10;0.10;;;8.70;99.90;;;;;;5094170;28;21233;-80
2023/03/14 04:56:00;;;;;;;1.17;1.08;;;8.70;99.90;;;;;;5092098;28;20016;-79
2023/03/14 04:58:25;;;;;;;1.88;1.75;;;8.70;99.90;;;;;;5096386;28;20040;-79
2023/03/14 05:00:51;;;;;;;6.53;0.98;;;8.70;99.90;;;;;;5081138;28;20032;-79
2023/03/14 05:03:18;;;;;;;3.33;0.85;;;8.70;99.90;;;;;;5093290;28;20142;-80
2023/03/14 05:05:44;;;;;;;0.90;0.90;;;8.70;99.90;;;;;;5096951;28;20061;-80
2023/03/14 05:08:10;;;;;;;0.43;0.43;;;8.80;99.90;;;;;;5095439;28;20522;-80
2023/03/14 05:10:36;;;;;;;2.55;0.85;;;8.80;99.90;;;;;;5101906;28;20501;-80
2023/03/14 05:13:02;;;;;;;0.35;0.35;;;8.80;99.90;;;;;;5097183;28;20080;-78
2023/03/14 05:15:28;;;;;;;0.10;0.10;;;8.80;99.90;;;;;;5085631;28;20106;-79
2023/03/14 05:17:56;;;;;;;0.10;0.10;;;8.80;99.90;;;;;;5092588;28;20074;-77
2023/03/14 05:20:22;;;;;;;0.40;0.40;;;8.90;99.90;;;;;;5100476;28;20415;-77
2023/03/14 05:22:48;;;;;;;0.75;0.75;;;8.90;99.90;;;;;;5093482;28;20031;-76
2023/03/14 05:25:13;;;;;;;1.45;0.98;;;8.90;99.90;;;;;;5094694;28;20032;-76
2023/03/14 05:27:39;;;;;;;0.95;0.52;;;8.80;99.90;;;;;;5088383;28;20060;-77
2023/03/14 05:30:06;;;;;;;0.17;0.17;;;8.70;99.90;;;;;;5091488;28;20020;-77
2023/03/14 05:32:32;;;;;;;0.30;0.30;;;8.60;99.90;;;;;;5090065;28;20032;-77
2023/03/14 05:34:59;;;;;;;6.83;3.30;;;8.40;99.90;;;;;;5095847;28;20441;-77
2023/03/14 05:37:28;;;;;;;4.45;1.90;;;8.30;99.90;;;;;;5099102;28;20262;-77
2023/03/14 05:39:54;;;;;;;0.82;0.82;;;8.20;99.90;;;;;;5098218;28;20128;-82
2023/03/14 05:42:19;;;;;;;14.98;1.15;;;8.10;99.90;;;;;;5092914;28;20106;-81
2023/03/14 05:44:45;;;;;;;0.43;0.43;;;8.00;99.90;;;;;;5101894;28;20065;-80
2023/03/14 05:47:11;;;;;;;2.55;2.25;;;7.90;99.90;;;;;;5102125;28;20669;-81
2023/03/14 05:49:36;;;;;;;0.10;0.10;;;7.80;99.90;;;;;;5092914;28;20028;-82
2023/03/14 05:52:02;;;;;;;0.75;0.65;;;7.70;99.90;;;;;;5099261;28;20019;-82
2023/03/14 05:54:28;;;;;;;0.10;0.10;;;7.70;99.90;;;;;;5096900;28;20888;-81
2023/03/14 05:56:53;;;;;;;0.63;0.63;;;7.60;99.90;;;;;;5091922;28;20024;-83
2023/03/14 05:59:19;;;;;;;0.63;0.63;;;7.60;99.90;;;;;;5094242;28;20020;-81
2023/03/14 06:01:45;;;;;;;0.10;0.10;;;7.60;99.90;;;;;;5103401;28;20024;-83
2023/03/14 06:04:10;;;;;;;0.20;0.20;;;7.60;99.90;;;;;;5094214;28;20054;-81
2023/03/14 06:06:36;;;;;;;2.15;1.10;;;7.60;99.90;;;;;;5093801;28;20047;-85
2023/03/14 06:09:02;;;;;;;0.77;0.77;;;7.60;99.90;;;;;;5091170;28;20050;-84
2023/03/14 06:11:28;;;;;;;0.10;0.10;;;7.50;99.90;;;;;;5084080;28;20032;-84
2023/03/14 06:13:53;;;;;;;5.40;0.75;;;7.50;99.90;;;;;;5099690;28;20312;-83
2023/03/14 06:16:19;;;;;;;0.28;0.28;;;7.60;99.90;;;;;;5095239;28;20031;-84
2023/03/14 06:18:46;;;;;;;1.65;1.55;;;7.80;99.90;;;;;;5102231;28;20030;-84
2023/03/14 06:21:12;;;;;;;;;;;7.90;99.90;;;;;;5083414;28;20107;-84
2023/03/14 06:23:38;;;;;;;0.37;0.37;;;7.80;99.90;;;;;;5102772;28;19950;-84
2023/03/14 06:26:04;;;;;;;0.30;0.30;;;7.90;99.90;;;;;;5089662;28;20486;-82
2023/03/14 06:28:30;;;;;;;0.60;0.60;;;8.00;99.90;;;;;;5099060;28;20273;-81
2023/03/14 06:30:55;;;;;;;6.30;3.88;;;8.00;99.90;;;;;;5101487;28;20135;-80
2023/03/14 06:33:21;;;;;;;0.40;0.40;;;8.10;99.90;;;;;;5098585;28;20058;-81
2023/03/14 06:35:47;;;;;;;3.67;2.60;;;8.00;99.90;;;;;;5101919;28;21021;-82
2023/03/14 06:38:12;;;;;;;0.10;0.10;;;7.90;99.90;;;;;;5103306;28;20036;-81
2023/03/14 06:40:38;;;;;;;2.63;1.55;;;7.90;99.90;;;;;;5094764;28;20878;-85
2023/03/14 06:43:04;;;;;;;1.17;1.08;;;7.80;99.90;;;;;;5092830;28;20602;-83
2023/03/14 06:45:30;;;;;;;3.53;1.00;;;7.80;99.90;;;;;;5103067;28;20552;-82
2023/03/14 06:47:55;;;;;;;0.20;0.20;;;7.80;99.90;;;;;;5102431;28;20667;-82
2023/03/14 06:50:22;;;;;;;1.20;1.10;;;7.70;99.90;;;;;;5099075;28;20398;-81
2023/03/14 06:52:48;;;;;;;;;;;7.80;99.90;;;;;;5086506;28;20031;-82
2023/03/14 06:55:15;;;;;;;2.33;2.03;;;7.80;99.90;;;;;;5089377;28;19923;-81
2023/03/14 06:57:41;;;;;;;0.10;0.10;;;8.10;99.90;;;;;;5088731;28;20110;-82
2023/03/14 07:00:08;;;;;;;0.10;0.10;;;8.10;99.90;;;;;;5092670;28;20559;-80
2023/03/14 07:02:33;;;;;;;1.70;1.27;;;8.20;99.90;;;;;;5101025;28;20136;-81
2023/03/14 07:05:00;;;;;;;0.10;0.10;;;8.10;99.90;;;;;;5101289;28;20490;-81
2023/03/14 07:07:26;;;;;;;0.40;0.40;;;8.20;99.90;;;;;;5102062;28;20669;-83
2023/03/14 07:09:52;;;;;;;1.13;1.10;;;8.20;99.90;;;;;;5087361;28;20827;-83
2023/03/14 07:12:18;;;;;;;5.40;1.42;;;8.40;99.90;;;;;;5099102;28;20254;-82
2023/03/14 07:14:43;;;;;;;0.28;0.28;;;8.30;99.90;;;;;;5096102;28;20032;-81
2023/03/14 07:17:09;;;;;;;1.85;1.75;;;8.30;99.90;;;;;;5097242;28;20036;-81
2023/03/14 07:19:35;;;;;;;1.38;1.25;;;8.30;99.90;;;;;;5103433;28;20027;-81
2023/03/14 07:22:00;;;;;;;0.10;0.10;;;8.30;99.90;;;;;;5080887;28;20082;-81
2023/03/14 07:24:26;;;;;;;0.10;0.10;;;8.30;99.90;;;;;;5094206;28;20039;-82
2023/03/14 07:26:52;;;;;;;0.20;0.20;;;9.20;99.90;;;;;;5097902;28;20158;-83
2023/03/14 07:29:18;;;;;;;0.28;0.28;;;10.00;99.90;;;;;;5091751;28;20020;-83
2023/03/14 07:31:44;;;;;;;0.95;0.93;;;8.90;99.90;;;;;;5100076;28;20546;-82
2023/03/14 07:34:09;;;;;;;0.10;0.10;;;10.10;99.90;;;;;;5103247;28;20031;-83
2023/03/14 07:36:35;;;;;;;0.10;0.10;;;11.20;99.90;;;;;;5080049;28;20027;-82
2023/03/14 07:39:01;;;;;;;3.00;0.83;;;11.90;99.90;;;;;;5084399;28;20027;-83
2023/03/14 07:41:27;;;;;;;8.15;0.35;;;10.50;99.90;;;;;;5078256;28;20032;-82
2023/03/14 07:43:52;;;;;;;0.93;0.90;;;9.90;99.90;;;;;;5102816;28;20488;-81
2023/03/14 07:46:18;;;;;;;0.63;0.63;;;9.50;99.90;;;;;;5081599;28;20392;-83
2023/03/14 07:48:44;;;;;;;0.10;0.10;;;9.60;99.90;;;;;;5095855;28;20122;-84
2023/03/14 07:51:09;;;;;;;0.10;0.10;;;9.50;99.90;;;;;;5092480;28;20078;-83
2023/03/14 07:53:35;;;;;;;0.30;0.30;;;9.40;99.90;;;;;;5099342;28;20032;-82
2023/03/14 07:56:01;;;;;;;0.10;0.10;;;9.30;99.90;;;;;;5099867;28;20020;-82
2023/03/14 07:58:26;;;;;;;2.80;2.25;;;9.10;99.90;;;;;;5092799;28;20035;-83
2023/03/14 08:00:52;;;;;;;0.88;0.88;;;9.00;99.90;;;;;;5084282;28;20561;-81
2023/03/14 08:03:18;;;;;;;2.43;0.50;;;8.80;99.90;;;;;;5083935;28;20080;-83
2023/03/14 08:05:47;;;;;;;0.10;0.10;;;8.70;99.90;;;;;;5102888;28;20084;-83
2023/03/14 08:08:13;;;;;;;1.13;1.00;;;8.90;99.90;;;;;;5076901;28;20070;-82
2023/03/14 08:10:39;;;;;;;0.40;0.40;;;8.70;99.90;;;;;;5092571;28;20493;-83
2023/03/14 08:13:04;;;;;;;0.20;0.20;;;8.70;99.90;;;;;;5091880;28;20027;-82
2023/03/14 08:15:30;;;;;;;0.10;0.10;;;8.70;99.90;;;;;;5087224;28;20043;-83
2023/03/14 08:17:56;;;;;;;0.10;0.10;;;8.70;99.90;;;;;;5084656;28;20100;-83
2023/03/14 08:20:25;;;;;;;0.35;0.35;;;8.70;99.90;;;;;;5079136;28;20554;-81
2023/03/14 08:22:50;;;;;;;0.85;0.63;;;8.70;99.90;;;;;;5065545;28;20058;-83
2023/03/14 08:25:16;;;;;;;0.35;0.35;;;8.80;99.90;;;;;;5066151;28;20119;-83
2023/03/14 08:27:42;;;;;;;0.60;0.47;;;8.70;99.90;;;;;;5086529;28;20023;-82
2023/03/14 08:30:13;;;;;;;5.68;1.85;;;8.60;99.90;;;;;;5073734;28;20333;-83
2023/03/14 08:32:39;;;;;;;0.10;0.10;;;8.50;99.90;;;;;;5091436;28;20794;-82
2023/03/14 08:35:05;;;;;;;0.10;0.10;;;8.60;99.90;;;;;;5098245;28;20046;-82
2023/03/14 08:37:32;;;;;;;10.05;2.45;;;8.50;99.90;;;;;;5100362;28;20023;-82
2023/03/14 08:39:58;;;;;;;0.20;0.20;;;8.80;99.90;;;;;;5080993;28;20811;-82
2023/03/14 08:42:24;;;;;;;0.25;0.25;;;8.90;99.90;;;;;;5101830;28;20047;-82
2023/03/14 08:44:51;;;;;;;0.13;0.13;;;8.80;99.90;;;;;;5077829;28;20056;-82
2023/03/14 08:47:16;;;;;;;0.10;0.10;;;8.80;99.90;;;;;;5088763;28;20027;-83
2023/03/14 08:49:42;;;;;;;5.15;1.15;;;10.90;99.90;;;;;;5090620;28;20105;-83
2023/03/14 08:52:08;;;;;;;0.10;0.10;;;10.40;99.90;;;;;;5064518;28;20032;-81
2023/03/14 08:54:34;;;;;;;0.10;0.10;;;11.90;99.90;;;;;;5088783;28;20024;-83
2023/03/14 08:56:59;;;;;;;0.50;0.50;;;12.80;99.90;;;;;;5076294;28;20662;-82
2023/03/14 08:59:25;;;;;;;0.10;0.10;;;12.10;99.90;;;;;;5102131;28;20110;-83
2023/03/14 09:01:51;;;;;;;0.10;0.10;;;13.00;99.90;;;;;;5097276;28;20142;-83
2023/03/14 09:04:16;;;;;;;0.00;0.00;;;14.00;99.90;;;;;;5079442;28;20078;-83
2023/03/14 09:06:42;;;;;;;1.25;0.82;;;13.90;99.90;;;;;;5078796;28;20153;-83
2023/03/14 09:09:08;;;;;;;1.70;1.40;;;12.60;99.90;;;;;;5069640;28;20820;-82
2023/03/14 09:11:34;;;;;;;0.10;0.10;;;11.00;99.90;;;;;;5072251;28;20027;-82
2023/03/14 09:14:00;;;;;;;0.55;0.55;;;10.40;99.90;;;;;;5088137;28;20028;-83
2023/03/14 09:16:26;;;;;;;0.10;0.10;;;10.00;99.90;;;;;;5099561;28;20028;-83
2023/03/14 09:18:54;;;;;;;0.50;0.50;;;10.00;99.90;;;;;;5068623;28;20028;-83
2023/03/14 09:21:20;;;;;;;0.10;0.10;;;10.00;99.90;;;;;;5105906;28;20019;-83
2023/03/14 09:23:46;;;;;;;0.20;0.20;;;10.40;99.90;;;;;;5102004;28;20058;-83
2023/03/14 09:26:12;;;;;;;0.63;0.63;;;9.70;99.90;;;;;;5104866;28;20417;-83
2023/03/14 09:28:37;;;;;;;0.10;0.10;;;10.50;99.90;;;;;;5098015;28;20035;-81
2023/03/14 09:31:11;;;;;;;0.20;0.20;;;13.80;99.90;;;;;;5097814;28;20020;-84
2023/03/14 09:33:37;;;;;;;0.68;0.68;;;15.20;99.90;;;;;;5095687;28;20023;-83
2023/03/14 09:36:03;;;;;;;0.10;0.10;;;12.50;99.90;;;;;;5103279;28;20093;-81
2023/03/14 09:38:28;;;;;;;6.75;1.23;;;12.30;99.90;;;;;;5095324;28;20024;-83
2023/03/14 09:40:57;;;;;;;0.98;0.93;;;11.80;99.90;;;;;;5100823;28;20020;-83
2023/03/14 09:43:24;;;;;;;0.20;0.20;;;13.00;99.90;;;;;;5097169;28;20024;-81
2023/03/14 09:45:51;;;;;;;0.40;0.40;;;13.30;99.90;;;;;;5070899;28;20148;-83
2023/03/14 09:48:26;;;;;;;0.47;0.47;;;13.00;99.90;;;;;;5094423;28;20111;-83
2023/03/14 09:50:57;;;;;;;0.00;0.00;;;12.00;99.90;;;;;;5100447;28;20142;-83
2023/03/14 09:53:28;;;;;;;0.10;0.10;;;11.30;99.90;;;;;;5096233;28;20035;-82
2023/03/14 09:55:57;;;;;;;0.50;0.50;;;11.10;99.90;;;;;;5081292;28;20027;-83
2023/03/14 09:58:24;;;;;;;0.50;0.50;;;10.80;99.90;;;;;;5095372;28;20894;-82
2023/03/14 10:00:52;;;;;;;0.10;0.10;;;10.90;99.90;;;;;;5089875;28;20072;-83
2023/03/14 10:03:34;;;;;;;1.75;0.75;;;11.30;99.90;;;;;;5095589;28;20056;-81
2023/03/14 10:06:01;;;;;;;16.75;1.75;;;11.20;99.90;;;;;;5084739;28;20050;-83
2023/03/14 10:08:27;;;;;;;2.70;1.75;;;11.00;99.90;;;;;;5071958;28;20028;-83
2023/03/14 10:10:54;;;;;;;0.13;0.13;;;11.40;99.90;;;;;;5080767;28;20042;-81
2023/03/14 10:13:24;;;;;;;5.05;2.47;;;11.10;99.90;;;;;;5084874;28;20019;-83
2023/03/14 10:16:01;;;;;;;8.15;2.17;;;10.60;99.90;;;;;;5073905;28;20107;-83
2023/03/14 10:18:29;;;;;;;4.82;1.25;;;10.50;99.90;;;;;;5094688;28;20028;-83
2023/03/14 10:21:28;;;;;;;11.05;1.48;;;10.90;99.90;;;;;;5080026;28;20107;-83
2023/03/14 10:23:54;;;;;;;0.40;0.40;;;11.00;99.90;;;;;;5071998;28;20040;-83
2023/03/14 10:26:33;;;;;;;0.80;0.80;;;11.10;99.90;;;;;;5097103;28;20032;-83
2023/03/14 10:29:12;;;;;;;0.10;0.10;;;11.50;99.90;;;;;;5091463;27;20024;-82
2023/03/14 10:32:03;;;;;;;1.17;1.17;;;11.20;99.90;;;;;;5074664;28;20032;-83
2023/03/14 10:34:37;;;;;;;0.35;0.35;;;10.50;99.90;;;;;;5098786;28;20024;-83
2023/03/14 10:37:25;;;;;;;0.57;0.57;;;10.30;99.90;;;;;;5097583;28;20132;-82
2023/03/14 10:39:53;;;;;;;0.10;0.10;;;10.60;99.90;;;;;;5069468;28;20402;-82
2023/03/14 10:42:29;;;;;;;0.38;0.38;;;11.20;99.90;;;;;;5080008;28;20020;-82
2023/03/14 10:44:59;;;;;;;0.15;0.15;;;12.30;99.90;;;;;;5089411;28;20032;-83
2023/03/14 10:47:28;;;;;;;0.10;0.10;;;11.70;99.90;;;;;;5096177;28;20028;-82
2023/03/14 10:49:54;;;;;;;0.00;0.00;;;11.30;99.90;;;;;;5102103;28;20122;-82
2023/03/14 10:52:25;;;;;;;0.17;0.17;;;11.20;99.90;;;;;;5091076;28;20031;-83
2023/03/14 10:54:58;;;;;;;0.00;0.00;;;10.90;99.90;;;;;;5091088;28;20465;-84
2023/03/14 10:57:25;;;;;;;0.10;0.10;;;11.30;99.90;;;;;;5098312;28;20111;-82
2023/03/14 10:59:52;;;;;;;0.30;0.30;;;12.00;99.90;;;;;;5092585;28;20020;-83
2023/03/14 11:02:56;;;;;;;4.15;0.52;;;12.50;99.90;;;;;;5067412;28;20089;-82
2023/03/14 11:05:34;;;;;;;0.30;0.30;;;12.90;99.90;;;;;;5088911;28;20039;-82
2023/03/14 11:08:07;;;;;;;0.10;0.10;;;12.00;99.90;;;;;;5080959;28;20027;-83
2023/03/14 11:10:37;;;;;;;0.10;0.10;;;11.90;99.90;;;;;;5084802;28;20047;-81
2023/03/14 11:13:11;;;;;;;1.15;0.75;;;12.10;99.90;;;;;;5086407;28;20030;-82
2023/03/14 11:15:41;;;;;;;0.90;0.70;;;12.00;99.90;;;;;;5086894;28;20111;-83
2023/03/14 11:18:12;;;;;;;2.35;1.40;;;11.90;99.90;;;;;;5077541;28;20129;-82
2023/03/14 11:20:43;;;;;;;1.90;1.33;;;12.50;99.90;;;;;;5085175;28;20035;-83
2023/03/14 11:23:20;;;;;;;0.10;0.10;;;12.60;99.90;;;;;;5084085;28;20024;-81
2023/03/14 11:25:58;;;;;;;0.00;0.00;;;12.30;99.90;;;;;;5099132;28;20042;-83
2023/03/14 11:28:34;;;;;;;1.38;1.27;;;11.80;99.90;;;;;;5078805;28;20027;-81
2023/03/14 11:31:25;;;;;;;0.43;0.43;;;12.00;99.90;;;;;;5068060;28;20032;-83
2023/03/14 11:33:51;;;;;;;5.35;1.48;;;12.00;99.90;;;;;;5102004;28;20114;-83
2023/03/14 11:36:26;;;;;;;0.10;0.10;;;12.30;99.90;;;;;;5072044;28;20527;-83
2023/03/14 11:38:59;;;;;;;1.35;1.17;;;12.40;99.90;;;;;;5082555;28;20119;-81
2023/03/14 11:41:27;;;;;;;0.20;0.20;;;11.90;99.90;;;;;;5097442;28;20065;-83
2023/03/14 11:43:57;;;;;;;1.17;1.05;;;11.60;99.90;;;;;;5082986;28;20028;-83
2023/03/14 11:46:38;;;;;;;2.38;1.27;;;11.20;99.90;;;;;;5089873;28;20035;-81
2023/03/14 11:49:12;;;;;;;5.15;0.65;;;11.00;99.90;;;;;;5084988;28;20032;-81
2023/03/14 11:51:45;;;;;;;0.20;0.20;;;10.80;99.90;;;;;;5085177;28;20047;-82
2023/03/14 11:54:42;;;;;;;0.90;0.90;;;10.70;99.90;;;;;;5103925;28;20460;-82
2023/03/14 11:57:16;;;;;;;0.10;0.10;;;10.70;99.90;;;;;;5097802;28;20075;-82
2023/03/14 11:59:49;;;;;;;2.35;0.82;;;10.50;99.90;;;;;;5096583;28;20743;-82
2023/03/14 12:02:40;;;;;;;0.10;0.10;;;10.70;99.90;;;;;;5071257;28;20028;-83
2023/03/14 12:05:33;;;;;;;0.10;0.10;;;11.00;99.90;;;;;;5077796;28;20078;-83
2023/03/14 12:08:09;;;;;;;0.80;0.73;;;11.10;99.90;;;;;;5070821;28;20050;-81
2023/03/14 12:10:42;;;;;;;0.43;0.43;;;11.30;99.90;;;;;;5094020;28;20028;-83
2023/03/14 12:13:13;;;;;;;0.10;0.10;;;11.50;99.90;;;;;;5072493;28;20024;-83
2023/03/14 12:15:46;;;;;;;0.10;0.10;;;11.50;99.90;;;;;;5097957;28;20562;-83
2023/03/14 12:18:39;;;;;;;0.52;0.52;;;11.90;99.90;;;;;;5069060;28;20517;-82
2023/03/14 12:21:07;;;;;;;0.00;0.00;;;12.20;99.90;;;;;;5080258;28;20032;-82
2023/03/14 12:23:49;;;;;;;0.40;0.40;;;12.20;99.90;;;;;;5095528;28;20027;-83
2023/03/14 12:26:20;;;;;;;0.22;0.22;;;12.10;99.90;;;;;;5082123;28;20028;-83
2023/03/14 12:28:51;;;;;;;0.20;0.20;;;12.20;99.90;;;;;;5083487;28;20124;-83
2023/03/14 12:31:31;;;;;;;2.92;0.90;;;12.40;99.90;;;;;;5086634;28;20024;-82
2023/03/14 12:34:09;;;;;;;0.35;0.35;;;11.70;99.90;;;;;;5094545;28;20508;-83
2023/03/14 12:36:54;;;;;;;0.10;0.10;;;11.40;99.90;;;;;;5084784;28;20032;-83
2023/03/14 12:39:54;;;;;;;0.20;0.20;;;11.00;99.90;;;;;;5098343;28;20024;-83
2023/03/14 12:42:40;;;;;;;0.20;0.20;;;11.20;99.90;;;;;;5089136;28;20099;-83
2023/03/14 12:45:31;;;;;;;1.15;1.02;;;11.20;99.90;;;;;;5077035;28;20030;-82
2023/03/14 12:48:17;;;;;;;0.20;0.20;;;11.10;99.90;;;;;;5096153;28;20024;-83
2023/03/14 12:51:01;;;;;;;0.10;0.10;;;11.10;99.90;;;;;;5091447;28;20031;-82
2023/03/14 12:53:48;;;;;;;0.10;0.10;;;10.90;99.90;;;;;;5101816;28;20026;-83
2023/03/14 12:56:40;;;;;;;0.20;0.20;;;11.20;99.90;;;;;;5100948;28;20051;-82
2023/03/14 12:59:26;;;;;;;3.42;0.35;;;11.60;99.90;;;;;;5100615;28;20027;-82
2023/03/14 13:02:07;;;;;;;0.10;0.10;;;11.60;99.90;;;;;;5079304;28;20553;-83